createdAt,value
2019-03-08T00:00:22.855Z,85.90
2019-03-08T00:02:51.300Z,85.00
2019-03-08T00:05:20.056Z,85.70
2019-03-08T00:07:48.418Z,85.60
2019-03-08T00:10:16.901Z,85.90
2019-03-08T00:12:45.188Z,85.90
2019-03-08T00:15:15.183Z,85.50
2019-03-08T00:17:43.578Z,85.10
2019-03-08T00:20:12.136Z,84.90
2019-03-08T00:22:40.486Z,84.90
2019-03-08T00:25:13.360Z,85.20
2019-03-08T00:27:41.724Z,84.60
2019-03-08T00:30:15.733Z,84.80
2019-03-08T00:32:44.646Z,85.40
2019-03-08T00:35:13.011Z,84.20
2019-03-08T00:37:41.391Z,84.10
2019-03-08T00:40:12.262Z,83.90
2019-03-08T00:42:40.661Z,83.70
2019-03-08T00:45:16.955Z,83.10
2019-03-08T00:47:45.309Z,81.10
2019-03-08T00:50:13.738Z,83.30
2019-03-08T00:52:42.133Z,82.90
2019-03-08T00:55:14.348Z,82.80
2019-03-08T00:57:42.710Z,82.80
2019-03-08T01:00:17.385Z,82.30
2019-03-08T01:02:45.737Z,82.20
2019-03-08T01:05:14.104Z,82.10
2019-03-08T01:07:42.604Z,81.90
2019-03-08T01:10:22.152Z,81.90
2019-03-08T01:12:50.543Z,81.80
2019-03-08T01:15:19.051Z,81.70
2019-03-08T01:17:47.434Z,81.70
2019-03-08T01:20:18.224Z,81.90
2019-03-08T01:22:46.579Z,81.90
2019-03-08T01:25:15.806Z,81.80
2019-03-08T01:27:58.939Z,81.80
2019-03-08T01:30:27.564Z,81.70
2019-03-08T01:32:55.919Z,82.00
2019-03-08T01:35:24.633Z,82.10
2019-03-08T01:37:53.370Z,82.10
2019-03-08T01:40:21.722Z,82.20
2019-03-08T01:42:50.641Z,82.30
2019-03-08T01:45:19.002Z,82.30
2019-03-08T01:47:47.354Z,82.40
2019-03-08T01:50:15.778Z,82.40
2019-03-08T01:52:44.430Z,82.40
2019-03-08T01:55:12.799Z,82.30
2019-03-08T01:57:41.226Z,82.50
2019-03-08T02:00:15.226Z,82.60
2019-03-08T02:02:43.599Z,82.90
2019-03-08T02:05:12.002Z,82.80
2019-03-08T02:07:40.358Z,82.70
2019-03-08T02:10:14.723Z,82.80
2019-03-08T02:12:43.044Z,83.00
2019-03-08T02:15:16.268Z,82.90
2019-03-08T02:17:44.656Z,82.90
2019-03-08T02:20:15.163Z,82.70
2019-03-08T02:22:43.519Z,82.70
2019-03-08T02:25:11.916Z,82.50
2019-03-08T02:27:40.281Z,82.50
2019-03-08T02:30:14.176Z,82.20
2019-03-08T02:32:43.224Z,82.40
2019-03-08T02:35:11.660Z,82.60
2019-03-08T02:37:40.048Z,82.80
2019-03-08T02:40:26.546Z,83.00
2019-03-08T02:42:54.919Z,82.80
2019-03-08T02:45:23.429Z,82.80
2019-03-08T02:47:51.826Z,82.80
2019-03-08T02:50:20.183Z,82.50
2019-03-08T02:52:48.561Z,82.30
2019-03-08T02:55:16.968Z,82.40
2019-03-08T02:57:45.319Z,82.50
2019-03-08T03:00:15.406Z,82.10
2019-03-08T03:02:44.690Z,81.90
2019-03-08T03:05:13.068Z,81.90
2019-03-08T03:07:41.432Z,82.00
2019-03-08T03:10:11.367Z,82.00
2019-03-08T03:12:39.938Z,81.90
2019-03-08T03:15:10.882Z,82.00
2019-03-08T03:17:39.270Z,81.80
2019-03-08T03:20:10.071Z,81.30
2019-03-08T03:22:38.436Z,80.40
2019-03-08T03:25:09.366Z,80.10
2019-03-08T03:27:37.726Z,80.10
2019-03-08T03:30:17.187Z,79.60
2019-03-08T03:32:45.548Z,79.20
2019-03-08T03:35:15.164Z,79.50
2019-03-08T03:37:43.582Z,79.60
2019-03-08T03:40:16.437Z,79.60
2019-03-08T03:42:44.805Z,79.60
2019-03-08T03:45:15.990Z,79.80
2019-03-08T03:47:44.361Z,79.80
2019-03-08T03:50:13.446Z,79.90
2019-03-08T03:52:42.575Z,80.10
2019-03-08T03:55:13.835Z,80.40
2019-03-08T03:57:42.211Z,80.60
2019-03-08T04:00:16.533Z,80.90
2019-03-08T04:02:44.888Z,81.20
2019-03-08T04:05:13.738Z,82.10
2019-03-08T04:07:42.209Z,81.80
2019-03-08T04:10:15.299Z,81.80
2019-03-08T04:12:43.693Z,82.10
2019-03-08T04:15:15.173Z,82.40
2019-03-08T04:17:43.527Z,82.70
2019-03-08T04:20:16.385Z,83.20
2019-03-08T04:22:44.757Z,83.60
2019-03-08T04:25:14.155Z,83.70
2019-03-08T04:27:42.556Z,83.70
2019-03-08T04:30:19.183Z,83.80
2019-03-08T04:32:47.554Z,84.00
2019-03-08T04:35:15.922Z,84.20
2019-03-08T04:37:44.280Z,84.50
2019-03-08T04:40:13.810Z,84.70
2019-03-08T04:42:42.164Z,84.60
2019-03-08T04:45:14.187Z,84.30
2019-03-08T04:47:42.834Z,84.10
2019-03-08T04:50:12.537Z,84.10
2019-03-08T04:52:40.901Z,83.90
2019-03-08T04:55:12.049Z,83.90
2019-03-08T04:57:40.403Z,83.60
2019-03-08T05:00:11.608Z,83.40
2019-03-08T05:02:40.407Z,83.30
2019-03-08T05:05:08.775Z,83.00
2019-03-08T05:07:37.167Z,82.90
2019-03-08T05:10:08.821Z,82.90
2019-03-08T05:12:37.679Z,82.80
2019-03-08T05:15:06.776Z,82.60
2019-03-08T05:17:35.173Z,82.50
2019-03-08T05:20:04.495Z,82.40
2019-03-08T05:22:32.867Z,82.30
2019-03-08T05:25:01.250Z,82.20
2019-03-08T05:27:30.114Z,82.20
2019-03-08T05:29:58.482Z,82.20
2019-03-08T05:32:26.876Z,82.10
2019-03-08T05:34:55.249Z,82.20
2019-03-08T05:37:23.604Z,82.00
2019-03-08T05:39:51.990Z,81.70
2019-03-08T05:42:20.760Z,81.80
2019-03-08T05:44:49.115Z,81.40
2019-03-08T05:47:17.520Z,81.10
2019-03-08T05:49:47.250Z,81.10
2019-03-08T05:52:15.612Z,81.20
2019-03-08T05:54:44.020Z,80.50
2019-03-08T05:57:12.358Z,79.80
2019-03-08T05:59:40.739Z,79.70
2019-03-08T06:02:09.158Z,79.20
2019-03-08T06:04:37.527Z,78.90
2019-03-08T06:07:05.884Z,78.40
2019-03-08T06:09:34.360Z,77.60
2019-03-08T06:12:02.721Z,77.80
2019-03-08T06:14:31.452Z,77.90
2019-03-08T06:16:59.918Z,78.00
2019-03-08T06:19:28.344Z,77.80
2019-03-08T06:21:56.711Z,78.00
2019-03-08T06:24:25.134Z,77.80
2019-03-08T06:26:53.470Z,77.80
2019-03-08T06:29:21.843Z,77.20
2019-03-08T06:31:50.244Z,77.10
2019-03-08T06:34:18.592Z,76.80
2019-03-08T06:36:46.956Z,77.00
2019-03-08T06:39:15.359Z,76.90
2019-03-08T06:41:43.729Z,76.80
2019-03-08T06:44:12.115Z,76.80
2019-03-08T06:46:40.877Z,76.20
2019-03-08T06:49:09.232Z,75.60
2019-03-08T06:51:37.713Z,75.50
2019-03-08T06:54:06.106Z,75.00
2019-03-08T06:56:34.474Z,75.40
2019-03-08T06:59:10.408Z,74.70
2019-03-08T07:01:39.427Z,74.90
2019-03-08T07:04:07.791Z,74.30
2019-03-08T07:06:36.200Z,74.10
2019-03-08T07:09:06.026Z,73.60
2019-03-08T07:11:34.381Z,72.70
2019-03-08T07:14:03.516Z,68.00
2019-03-08T07:16:31.849Z,62.60
2019-03-08T07:19:00.204Z,58.50
2019-03-08T07:21:33.117Z,57.80
2019-03-08T07:24:03.119Z,57.40
2019-03-08T07:26:51.090Z,55.20
2019-03-08T07:29:29.796Z,52.30
2019-03-08T07:31:59.846Z,51.00
2019-03-08T07:34:32.513Z,49.20
2019-03-08T07:37:19.276Z,46.10
2019-03-08T07:39:58.240Z,42.60
2019-03-08T07:42:28.282Z,43.30
2019-03-08T07:45:00.978Z,44.30
2019-03-08T07:47:37.171Z,48.00
2019-03-08T07:50:25.055Z,51.40
2019-03-08T07:53:11.349Z,54.10
2019-03-08T07:55:57.569Z,54.80
2019-03-08T07:58:27.592Z,55.90
2019-03-08T08:01:09.537Z,55.30
2019-03-08T08:03:55.036Z,53.80
2019-03-08T08:06:27.713Z,50.00
2019-03-08T08:09:14.198Z,45.40
2019-03-08T08:11:56.082Z,44.10
2019-03-08T08:14:28.768Z,46.00
2019-03-08T08:17:08.308Z,48.50
2019-03-08T08:19:49.972Z,48.10
2019-03-08T08:22:19.968Z,48.60
2019-03-08T08:24:55.962Z,47.80
2019-03-08T08:27:31.904Z,45.00
2019-03-08T08:30:01.952Z,40.60
2019-03-08T08:32:34.616Z,35.40
2019-03-08T08:35:13.969Z,36.50
2019-03-08T08:37:46.544Z,34.50
2019-03-08T08:40:16.540Z,35.50
2019-03-08T08:42:49.291Z,34.70
2019-03-08T08:45:19.302Z,34.60
2019-03-08T08:47:49.530Z,33.80
2019-03-08T08:50:19.571Z,30.00
2019-03-08T08:52:49.571Z,29.90
2019-03-08T08:55:22.253Z,28.00
2019-03-08T08:58:08.646Z,26.50
2019-03-08T09:00:38.642Z,25.70
2019-03-08T09:03:20.560Z,26.50
2019-03-08T09:05:50.554Z,26.00
2019-03-08T09:08:36.987Z,27.50
2019-03-08T09:11:16.109Z,28.50
2019-03-08T09:13:51.986Z,29.20
2019-03-08T09:16:28.337Z,29.20
2019-03-08T09:18:58.363Z,27.90
2019-03-08T09:21:44.475Z,27.90
2019-03-08T09:24:30.544Z,26.80
2019-03-08T09:27:06.552Z,27.10
2019-03-08T09:29:53.001Z,25.50
2019-03-08T09:32:23.311Z,26.20
2019-03-08T09:34:58.986Z,29.50
2019-03-08T09:37:34.916Z,32.70
2019-03-08T09:40:06.991Z,35.50
2019-03-08T09:42:54.986Z,36.40
2019-03-08T09:45:27.903Z,33.60
2019-03-08T09:48:03.823Z,31.20
2019-03-08T09:50:45.943Z,32.10
2019-03-08T09:53:21.715Z,30.40
2019-03-08T09:55:54.382Z,29.10
2019-03-08T09:58:40.650Z,30.20
2019-03-08T10:01:17.104Z,31.90
2019-03-08T10:03:53.296Z,31.60
2019-03-08T10:06:26.320Z,30.80
2019-03-08T10:09:15.058Z,29.90
2019-03-08T10:12:01.505Z,29.50
2019-03-08T10:14:40.322Z,28.20
2019-03-08T10:17:22.488Z,26.90
2019-03-08T10:19:52.496Z,26.60
2019-03-08T10:22:22.515Z,26.70
2019-03-08T10:24:53.827Z,27.10
2019-03-08T10:27:23.818Z,26.50
2019-03-08T10:29:53.804Z,27.10
2019-03-08T10:32:23.842Z,26.10
2019-03-08T10:35:10.096Z,25.70
2019-03-08T10:37:58.108Z,23.80
2019-03-08T10:40:30.717Z,22.90
2019-03-08T10:43:09.504Z,23.70
2019-03-08T10:45:39.521Z,23.10
2019-03-08T10:48:27.494Z,23.80
2019-03-08T10:51:00.304Z,23.50
2019-03-08T10:53:30.408Z,23.40
2019-03-08T10:56:15.732Z,22.10
2019-03-08T10:58:57.262Z,20.40
2019-03-08T11:01:27.300Z,20.20
2019-03-08T11:04:06.313Z,20.80
2019-03-08T11:06:41.936Z,22.50
2019-03-08T11:09:17.977Z,24.00
2019-03-08T11:11:56.956Z,23.20
2019-03-08T11:14:32.933Z,23.50
2019-03-08T11:17:03.078Z,22.40
2019-03-08T11:19:38.948Z,21.60
2019-03-08T11:22:12.415Z,22.00
2019-03-08T11:24:44.503Z,22.50
2019-03-08T11:27:14.498Z,23.50
2019-03-08T11:30:02.460Z,23.90
2019-03-08T11:32:32.487Z,24.00
2019-03-08T11:35:08.420Z,25.50
2019-03-08T11:37:38.421Z,26.90
2019-03-08T11:40:27.758Z,27.70
2019-03-08T11:43:10.044Z,28.60
2019-03-08T11:45:42.844Z,28.40
2019-03-08T11:48:27.710Z,28.80
2019-03-08T11:51:14.122Z,28.20
2019-03-08T11:53:44.149Z,28.80
2019-03-08T11:56:18.378Z,28.50
2019-03-08T11:58:51.197Z,27.90
2019-03-08T12:01:30.168Z,28.20
2019-03-08T12:04:02.873Z,28.10
2019-03-08T12:06:50.813Z,28.60
2019-03-08T12:09:20.820Z,28.50
2019-03-08T12:12:07.132Z,28.20
2019-03-08T12:14:53.525Z,29.60
2019-03-08T12:17:38.792Z,30.60
2019-03-08T12:20:11.900Z,30.80
2019-03-08T12:22:58.090Z,30.90
2019-03-08T12:25:33.850Z,30.70
2019-03-08T12:28:12.950Z,31.30
2019-03-08T12:30:48.939Z,31.90
2019-03-08T12:33:24.440Z,31.40
2019-03-08T12:35:57.276Z,30.80
2019-03-08T12:38:36.469Z,31.20
2019-03-08T12:41:21.537Z,31.20
2019-03-08T12:43:51.554Z,31.40
2019-03-08T12:46:21.556Z,32.00
2019-03-08T12:49:03.870Z,32.10
2019-03-08T12:51:50.210Z,32.20
2019-03-08T12:54:26.056Z,32.80
2019-03-08T12:57:02.222Z,32.60
2019-03-08T12:59:41.104Z,33.50
2019-03-08T13:05:09.346Z,34.30
2019-03-08T13:07:41.171Z,35.10
2019-03-08T13:10:15.079Z,34.90
2019-03-08T13:12:43.868Z,35.40
2019-03-08T13:15:14.572Z,36.20
2019-03-08T13:17:42.978Z,36.10
2019-03-08T13:20:14.273Z,37.20
2019-03-08T13:22:42.629Z,37.80
2019-03-08T13:25:11.504Z,38.10
2019-03-08T13:27:39.854Z,38.00
2019-03-08T13:30:11.511Z,38.70
2019-03-08T13:32:39.925Z,39.20
2019-03-08T13:35:11.344Z,39.80
2019-03-08T13:37:39.743Z,39.60
2019-03-08T13:40:11.219Z,38.50
2019-03-08T13:42:39.618Z,37.90
2019-03-08T13:45:11.263Z,37.40
2019-03-08T13:47:39.683Z,36.70
2019-03-08T13:50:11.378Z,37.20
2019-03-08T13:52:39.753Z,37.40
2019-03-08T13:55:13.813Z,38.20
2019-03-08T13:57:42.186Z,37.20
2019-03-08T14:00:18.716Z,36.40
2019-03-08T14:02:47.074Z,36.60
2019-03-08T14:05:15.464Z,37.10
2019-03-08T14:07:43.872Z,37.60
2019-03-08T14:10:14.975Z,38.70
2019-03-08T14:12:43.406Z,39.90
2019-03-08T14:15:14.269Z,38.90
2019-03-08T14:17:42.615Z,38.70
2019-03-08T14:20:14.367Z,38.80
2019-03-08T14:22:43.144Z,38.50
2019-03-08T14:25:11.580Z,38.80
2019-03-08T14:27:39.963Z,39.60
2019-03-08T14:30:17.539Z,39.90
2019-03-08T14:32:46.317Z,40.60
2019-03-08T14:35:14.663Z,40.30
2019-03-08T14:37:43.043Z,40.20
2019-03-08T14:40:34.123Z,39.50
2019-03-08T14:43:16.963Z,38.60
2019-03-08T14:45:47.924Z,38.30
2019-03-08T14:48:16.288Z,38.50
2019-03-08T14:50:44.744Z,38.40
2019-03-08T14:53:13.590Z,38.00
2019-03-08T14:55:41.985Z,37.50
2019-03-08T14:58:10.404Z,36.60
2019-03-08T15:00:38.808Z,34.70
2019-03-08T15:03:07.148Z,34.40
2019-03-08T15:05:35.566Z,33.20
2019-03-08T15:08:03.945Z,33.50
2019-03-08T15:10:39.098Z,33.80
2019-03-08T15:13:02.356Z,34.30
2019-03-08T15:15:30.736Z,34.60
2019-03-08T15:17:59.168Z,34.80
2019-03-08T15:20:27.586Z,33.70
2019-03-08T15:22:55.942Z,33.90
2019-03-08T15:25:24.314Z,34.00
2019-03-08T15:27:52.722Z,34.20
2019-03-08T15:30:21.075Z,34.30
2019-03-08T15:32:50.292Z,34.70
2019-03-08T15:35:18.921Z,35.20
2019-03-08T15:37:48.297Z,35.40
2019-03-08T15:40:24.113Z,35.90
2019-03-08T15:42:52.507Z,36.00
2019-03-08T15:45:20.901Z,35.50
2019-03-08T15:47:49.383Z,35.30
2019-03-08T15:50:19.898Z,36.50
2019-03-08T15:52:48.273Z,36.50
2019-03-08T15:55:16.704Z,37.30
2019-03-08T15:57:45.050Z,37.70
2019-03-08T16:00:24.748Z,38.00
2019-03-08T16:02:54.608Z,38.30
2019-03-08T16:05:23.879Z,38.60
2019-03-08T16:07:53.357Z,38.90
2019-03-08T16:10:22.884Z,39.20
2019-03-08T16:12:51.255Z,39.50
2019-03-08T16:15:19.671Z,39.60
2019-03-08T16:17:48.020Z,40.00
2019-03-08T16:20:20.726Z,40.00
2019-03-08T16:22:49.172Z,40.20
2019-03-08T16:25:17.826Z,40.50
2019-03-08T16:27:46.174Z,40.70
2019-03-08T16:30:31.555Z,41.00
2019-03-08T16:33:13.698Z,40.90
2019-03-08T16:35:43.971Z,41.20
2019-03-08T16:38:13.999Z,41.50
2019-03-08T16:40:44.038Z,41.60
2019-03-08T16:43:30.622Z,41.70
2019-03-08T16:46:12.318Z,41.60
2019-03-08T16:48:44.114Z,42.00
2019-03-08T16:51:14.218Z,42.20
2019-03-08T16:53:49.864Z,42.50
2019-03-08T16:56:22.561Z,42.90
2019-03-08T16:58:54.181Z,43.40
2019-03-08T17:01:27.130Z,43.70
2019-03-08T17:04:13.332Z,44.20
2019-03-08T17:06:43.373Z,44.60
2019-03-08T17:09:26.919Z,45.30
2019-03-08T17:12:05.664Z,45.70
2019-03-08T17:14:53.459Z,46.00
2019-03-08T17:17:26.356Z,46.60
2019-03-08T17:20:08.429Z,46.90
2019-03-08T17:22:41.088Z,46.80
2019-03-08T17:25:14.270Z,46.80
2019-03-08T17:27:44.296Z,47.20
2019-03-08T17:30:32.609Z,47.70
2019-03-08T17:33:02.647Z,47.90
2019-03-08T17:35:41.999Z,48.40
2019-03-08T17:38:12.016Z,48.70
2019-03-08T17:40:44.855Z,49.00
2019-03-08T17:43:20.848Z,49.10
2019-03-08T17:45:53.827Z,49.30
2019-03-08T17:48:23.919Z,49.60
2019-03-08T17:51:10.394Z,49.80
2019-03-08T17:53:56.326Z,49.90
2019-03-08T17:56:35.409Z,50.10
2019-03-08T17:59:08.814Z,50.10
2019-03-08T18:01:50.859Z,50.20
2019-03-08T18:04:26.398Z,50.20
2019-03-08T18:06:59.239Z,50.40
2019-03-08T18:09:43.972Z,50.40
2019-03-08T18:12:25.893Z,50.40
2019-03-08T18:14:56.409Z,50.80
2019-03-08T18:17:26.505Z,51.10
2019-03-08T18:20:05.052Z,51.70
2019-03-08T18:22:52.095Z,51.20
2019-03-08T18:25:28.227Z,51.20
2019-03-08T18:27:58.249Z,51.40
2019-03-08T18:30:40.229Z,52.20
2019-03-08T18:33:12.820Z,51.90
2019-03-08T18:35:45.913Z,52.00
2019-03-08T18:38:24.996Z,52.10
2019-03-08T18:41:09.791Z,52.20
2019-03-08T18:43:48.733Z,51.90
2019-03-08T18:46:18.905Z,51.90
2019-03-08T18:48:48.882Z,51.40
2019-03-08T18:51:24.734Z,51.50
2019-03-08T18:54:12.990Z,51.20
2019-03-08T18:56:59.193Z,51.20
2019-03-08T18:59:34.899Z,51.10
2019-03-08T19:02:13.983Z,51.20
2019-03-08T19:04:49.554Z,51.10
2019-03-08T19:07:19.607Z,51.20
2019-03-08T19:09:49.639Z,51.40
2019-03-08T19:12:25.277Z,51.60
2019-03-08T19:14:58.235Z,51.60
2019-03-08T19:17:44.628Z,51.70
2019-03-08T19:20:14.655Z,51.80
2019-03-08T19:22:47.549Z,52.00
2019-03-08T19:25:17.607Z,52.30
2019-03-08T19:27:54.368Z,52.40
2019-03-08T19:30:27.537Z,52.40
2019-03-08T19:33:06.433Z,52.60
2019-03-08T19:35:45.699Z,53.10
2019-03-08T19:38:30.818Z,53.60
2019-03-08T19:41:01.270Z,53.90
2019-03-08T19:43:34.320Z,54.30
2019-03-08T19:46:13.066Z,54.30
2019-03-08T19:48:46.081Z,54.50
2019-03-08T19:51:32.619Z,54.90
2019-03-08T19:54:02.796Z,55.00
2019-03-08T19:56:51.022Z,55.40
2019-03-08T19:59:36.248Z,55.50
2019-03-08T20:02:15.166Z,55.70
2019-03-08T20:05:01.616Z,55.90
2019-03-08T20:07:40.794Z,55.90
2019-03-08T20:10:27.499Z,56.00
2019-03-08T20:13:13.892Z,56.10
2019-03-08T20:15:55.899Z,56.10
2019-03-08T20:18:44.230Z,56.20
2019-03-08T20:21:14.283Z,56.10
2019-03-08T20:23:44.316Z,56.10
2019-03-08T20:26:14.332Z,56.30
2019-03-08T20:29:00.619Z,56.10
2019-03-08T20:31:36.456Z,56.80
2019-03-08T20:34:06.492Z,56.10
2019-03-08T20:36:38.936Z,56.10
2019-03-08T20:39:25.772Z,56.20
2019-03-08T20:41:55.833Z,56.10
2019-03-08T20:44:32.451Z,56.00
2019-03-08T20:47:02.508Z,56.00
2019-03-08T20:49:30.904Z,55.70
2019-03-08T20:51:59.456Z,55.80
2019-03-08T20:54:27.900Z,55.50
2019-03-08T20:56:56.351Z,55.40
2019-03-08T20:59:25.024Z,55.30
2019-03-08T21:01:53.854Z,55.10
2019-03-08T21:04:22.209Z,55.40
2019-03-08T21:06:51.595Z,55.50
2019-03-08T21:09:20.147Z,55.50
2019-03-08T21:11:48.555Z,55.50
2019-03-08T21:14:16.954Z,55.30
2019-03-08T21:16:45.391Z,55.40
2019-03-08T21:19:13.753Z,55.70
2019-03-08T21:21:42.159Z,55.70
2019-03-08T21:27:03.635Z,56.10
2019-03-08T21:29:32.041Z,56.50
2019-03-08T21:32:00.517Z,56.70
2019-03-08T21:34:28.950Z,57.10
2019-03-08T21:36:57.311Z,57.40
2019-03-08T21:39:25.729Z,58.00
2019-03-08T21:41:54.202Z,58.50
2019-03-08T21:44:22.598Z,58.70
2019-03-08T21:46:51.180Z,58.90
2019-03-08T21:49:19.579Z,58.70
2019-03-08T21:51:47.942Z,58.90
2019-03-08T21:54:16.325Z,58.50
2019-03-08T21:56:44.703Z,57.50
2019-03-08T21:59:13.100Z,57.30
2019-03-08T22:01:41.455Z,57.00
2019-03-08T22:04:11.505Z,55.90
2019-03-08T22:06:39.976Z,55.80
2019-03-08T22:09:19.041Z,56.10
2019-03-08T22:11:47.613Z,56.40
2019-03-08T22:14:16.002Z,57.10
2019-03-08T22:16:44.388Z,57.10
2019-03-08T22:19:12.763Z,57.00
2019-03-08T22:21:41.136Z,57.30
2019-03-08T22:24:13.337Z,58.00
2019-03-08T22:26:39.576Z,58.80
2019-03-08T22:29:07.950Z,59.60
2019-03-08T22:31:36.314Z,60.30
2019-03-08T22:34:04.719Z,60.90
2019-03-08T22:36:33.104Z,61.90
2019-03-08T22:39:01.997Z,61.80
2019-03-08T22:41:30.379Z,62.20
2019-03-08T22:43:58.739Z,62.70
2019-03-08T22:46:27.626Z,63.30
2019-03-08T22:48:55.985Z,63.80
2019-03-08T22:51:24.332Z,64.50
2019-03-08T22:53:52.735Z,64.90
2019-03-08T22:56:21.124Z,65.80
2019-03-08T22:58:49.501Z,66.50
2019-03-08T23:01:20.315Z,67.20
2019-03-08T23:03:48.681Z,67.80
2019-03-08T23:06:17.018Z,68.40
2019-03-08T23:08:45.440Z,68.80
2019-03-08T23:11:13.818Z,69.20
2019-03-08T23:13:42.163Z,69.60
2019-03-08T23:16:10.564Z,69.90
2019-03-08T23:18:39.240Z,69.90
2019-03-08T23:21:07.588Z,70.00
2019-03-08T23:23:36.008Z,70.00
2019-03-08T23:26:04.357Z,70.00
2019-03-08T23:28:37.292Z,70.20
2019-03-08T23:31:23.511Z,70.30
2019-03-08T23:33:51.891Z,70.50
2019-03-08T23:36:20.280Z,70.80
2019-03-08T23:38:48.693Z,71.00
2019-03-08T23:41:17.039Z,71.30
2019-03-08T23:43:45.415Z,71.60
2019-03-08T23:46:14.029Z,72.10
2019-03-08T23:48:42.404Z,72.50
2019-03-08T23:51:10.783Z,73.00
2019-03-08T23:53:39.195Z,73.40
2019-03-08T23:56:07.939Z,73.60
2019-03-08T23:58:36.330Z,74.10
